Section, AL (35771)

4:54 AM CDT on August 29, 2014 (GMT -0500)
US 72 and AL 35 | Change Station
CLOSE
Current Station
Personal Weather Station
Location: Scottsboro, AL
Elevation: 650 ft
Nearby Weather Stations

Elev 650 ft 34.66 °N, 86.02 °W | Updated 8 seconds ago

Clear
Clear
68.5 °F
Feels Like 68.5 °F
N
0.0
Wind Variable Wind from North
Gusts 0.7 mph

Today
High -- | Low -- °F
--% Chance of Precip.
Yesterday
High -- | Low -- °F
Precip. -- in
6:14 AM 7:14 PM
Waxing Crescent, 13% visible
Pressure 30.05 in
Visibility 0.2 miles
Clouds Overcast 200 ft
Dew Point 68 °F
Humidity 99%
Rainfall 0.00 in
Snow Depth Not available.
UV 0.0 out of 12
Pollen 9.70 out of 12
Air Quality Not available.
Flu Activity Not available.
METAR K4A6 290935Z AUTO 00000KT M1/4SM FG OVC002 19/19 A3005 RMK AO2

More Conditions Fewer Conditions

Pressure 30.05 in
Visibility 0.2 miles
Clouds Overcast 200 ft
Dew Point 68 °F
Humidity 99%
Rainfall 0.00 in
Snow Depth Not available.
UV 0.0 out of 12
Pollen 9.70 out of 12
Air Quality Not available.
Flu Activity Not available.
METAR K4A6 290935Z AUTO 00000KT M1/4SM FG OVC002 19/19 A3005 RMK AO2

More Conditions Fewer Conditions

10-Day Weather Forecast

Almanac

Astronomy

Aug. 29, 2014 Rise Set
Actual Time 6:14 AM CDT 7:14 PM CDT
Civil Twilight 5:49 AM CDT 7:40 PM CDT
Nautical Twilight 5:18 AM CDT 8:10 PM CDT
Astronomical Twilight 4:46 AM CDT 8:42 PM CDT
Moon 9:52 AM CDT 9:23 PM CDT
Length of Visible Light 13h 51m
Length of Day
12h 59m
Tomorrow will be 2m 2s shorter.
Waxing Crescent, 13% of the Moon is Illuminated
Today
Waxing Crescent
Sep 2
First Quarter
Sep 8
Full
Sep 15
Last Quarter
Sep 24
New

Today's Extremes

State Highs State Lows

Community

WunderPhotos

Upload Photos

1,748,207 photos uploaded!

Nearby

Snow Depth

Station Depth Elevation
No new snow has been reported.

Earthquake Activity

City Distance Mag. Time & Date
No recent earthquake activity has been reported nearby.
Minimum magnitude displayed is 2.5.

Coastal Water Temperatures

Place Temperature
No Stations Reporting

Nearby Weather Stations